Time;durP1;ratioP1;P1;durP2;ratioP2;P2;SDS_P1;SDS_P2;PMS_P1;PMS_P2;Temp;Humidity;BMP_temperature;BMP_pressure;BME280_temperature;BME280_humidity;BME280_pressure;Samples;Min_cycle;Max_cycle;Signal;HPM_P1;HPM_P2
2022/10/21 00:00:01;;;;;;;13.50;11.60;;;;;;;10.53;100.00;101065.63;5022192;28;20221;-70
2022/10/21 00:02:26;;;;;;;14.13;11.67;;;;;;;10.88;100.00;101110.47;5026349;28;20698;-68
2022/10/21 00:04:52;;;;;;;11.87;10.20;;;;;;;10.08;100.00;100989.91;5040987;28;20191;-69
2022/10/21 00:07:17;;;;;;;13.13;11.73;;;;;;;10.23;100.00;101015.81;5035955;28;20211;-69
2022/10/21 00:09:42;;;;;;;14.90;13.33;;;;;;;10.84;100.00;101115.41;5037443;28;20261;-69
2022/10/21 00:12:08;;;;;;;13.80;12.30;;;;;;;10.79;100.00;101113.31;5041370;28;20558;-69
2022/10/21 00:14:33;;;;;;;12.77;11.30;;;;;;;10.84;100.00;101112.72;5036057;28;20957;-69
2022/10/21 00:16:59;;;;;;;18.43;12.73;;;;;;;10.59;100.00;101080.94;5040698;28;20187;-69
2022/10/21 00:19:24;;;;;;;14.97;12.00;;;;;;;10.65;100.00;101087.41;5030931;28;20211;-69
2022/10/21 00:21:50;;;;;;;11.83;10.63;;;;;;;10.76;100.00;101113.69;5032586;28;20352;-69
2022/10/21 00:24:15;;;;;;;19.20;13.97;;;;;;;10.74;100.00;101099.66;5029302;28;20179;-69
2022/10/21 00:26:40;;;;;;;15.43;12.17;;;;;;;10.40;100.00;101046.72;5030603;28;20187;-69
2022/10/21 00:29:06;;;;;;;13.23;11.93;;;;;;;10.14;100.00;100996.34;5035314;28;20612;-69
2022/10/21 00:31:33;;;;;;;14.03;11.50;;;;;;;10.76;100.00;101094.06;5037318;28;20184;-69
2022/10/21 00:33:59;;;;;;;13.43;12.03;;;;;;;10.72;100.00;101085.59;5033486;28;20257;-69
2022/10/21 00:36:24;;;;;;;14.80;13.13;;;;;;;10.76;100.00;101091.38;5035042;28;20441;-68
2022/10/21 00:38:50;;;;;;;15.30;12.20;;;;;;;10.73;100.00;101083.72;5027577;28;20215;-68
2022/10/21 00:41:18;;;;;;;12.03;10.30;;;;;;;9.98;100.00;100961.75;5029956;28;20487;-68
2022/10/21 00:44:07;;;;;;;13.13;10.90;;;;;;;10.74;100.00;101091.59;5032937;28;20180;-68
2022/10/21 00:46:35;;;;;;;15.67;11.37;;;;;;;10.83;100.00;101087.75;5023162;28;20438;-70
2022/10/21 00:49:04;;;;;;;14.40;12.03;;;;;;;10.67;100.00;101071.91;5033397;28;20466;-69
2022/10/21 00:51:30;;;;;;;15.40;11.57;;;;;;;10.61;100.00;101068.16;5028681;28;20449;-69
2022/10/21 00:53:56;;;;;;;12.97;11.53;;;;;;;10.14;100.00;101002.53;5036848;28;20497;-69
2022/10/21 00:56:29;;;;;;;12.40;11.10;;;;;;;10.60;100.00;101071.88;5029242;28;20192;-69
2022/10/21 00:58:58;;;;;;;13.90;11.90;;;;;;;10.61;100.00;101080.75;5038064;28;20469;-70
2022/10/21 01:01:24;;;;;;;13.53;12.13;;;;;;;10.35;100.00;101031.19;5013087;28;21048;-69
2022/10/21 01:03:49;;;;;;;16.67;11.87;;;;;;;10.60;100.00;101069.19;5027685;28;20434;-70
2022/10/21 01:06:17;;;;;;;12.53;11.33;;;;;;;10.69;100.00;101061.00;5021078;28;21268;-69
2022/10/21 01:08:42;;;;;;;13.10;11.13;;;;;;;10.66;100.00;101066.75;5024414;28;20199;-70
2022/10/21 01:11:13;;;;;;;13.07;11.67;;;;;;;10.09;100.00;100972.78;5019994;28;20821;-69
2022/10/21 01:13:53;;;;;;;14.10;12.37;;;;;;;10.55;100.00;101057.38;5033066;28;20613;-70
2022/10/21 01:16:28;;;;;;;13.13;11.87;;;;;;;10.54;100.00;101055.72;5023177;28;20516;-69
2022/10/21 01:18:59;;;;;;;13.70;12.30;;;;;;;10.06;100.00;100977.69;5033013;28;21337;-69
2022/10/21 01:21:31;;;;;;;13.00;11.70;;;;;;;9.64;100.00;100915.91;5036110;28;20449;-69
2022/10/21 01:24:27;;;;;;;15.63;12.80;;;;;;;10.13;100.00;100990.16;5039006;28;20510;-69
2022/10/21 01:27:26;;;;;;;15.40;13.80;;;;;;;10.50;100.00;101041.03;5039699;28;20429;-69
2022/10/21 01:30:29;;;;;;;13.53;12.13;;;;;;;10.00;100.00;100957.03;5033881;28;20465;-69
2022/10/21 01:33:19;;;;;;;14.50;12.20;;;;;;;10.55;100.00;101036.75;5032172;28;21127;-69
2022/10/21 01:36:01;;;;;;;13.00;11.67;;;;;;;10.50;100.00;101028.47;5034715;28;20426;-69
2022/10/21 01:38:53;;;;;;;12.80;11.47;;;;;;;10.55;100.00;101023.31;5012782;28;20484;-69
2022/10/21 01:41:29;;;;;;;14.73;12.13;;;;;;;9.67;100.00;100866.47;5025732;28;20438;-70
2022/10/21 01:43:58;;;;;;;14.20;10.93;;;;;;;10.63;100.00;101017.00;5022723;28;20927;-69
2022/10/21 01:46:29;;;;;;;16.33;11.93;;;;;;;10.60;100.00;101023.59;5031136;28;20869;-69
2022/10/21 01:49:02;;;;;;;16.40;12.83;;;;;;;10.56;100.00;101016.97;5036406;28;20454;-69
2022/10/21 01:51:30;;;;;;;17.17;12.43;;;;;;;10.56;100.00;101019.66;5037595;28;23007;-70
2022/10/21 01:54:13;;;;;;;19.80;12.80;;;;;;;10.56;100.00;101010.78;5020915;28;20573;-69
2022/10/21 01:56:41;;;;;;;12.03;10.83;;;;;;;10.60;100.00;101010.16;5039734;28;20442;-69
2022/10/21 01:59:10;;;;;;;13.30;11.33;;;;;;;10.31;100.00;100956.72;5038621;28;21064;-69
2022/10/21 02:01:38;;;;;;;13.43;10.77;;;;;;;9.20;100.00;100774.16;5053631;22;20508;-74
2022/10/21 02:04:04;;;;;;;11.03;9.90;;;;;;;8.70;100.00;100706.38;5047807;28;20445;-74
2022/10/21 02:06:30;;;;;;;17.03;11.40;;;;;;;9.39;100.00;100819.03;5056190;28;20445;-74
2022/10/21 02:08:56;;;;;;;18.73;11.73;;;;;;;8.54;100.00;100654.00;5048432;28;20982;-74
2022/10/21 02:11:21;;;;;;;13.30;11.17;;;;;;;8.85;100.00;100723.19;5044098;28;20227;-74
2022/10/21 02:13:54;;;;;;;13.00;11.40;;;;;;;8.89;100.00;100692.41;5058316;28;20218;-75
2022/10/21 02:16:24;;;;;;;12.90;11.10;;;;;;;9.37;100.00;100751.47;5054405;28;20201;-74
2022/10/21 02:18:49;;;;;;;12.70;11.43;;;;;;;9.17;100.00;100731.75;5058746;28;20494;-75
2022/10/21 02:21:21;;;;;;;13.33;11.73;;;;;;;9.60;100.00;100772.66;5059638;28;20469;-74
2022/10/21 02:23:57;;;;;;;12.53;11.17;;;;;;;9.23;100.00;100709.59;5057740;28;20187;-74
2022/10/21 02:26:25;;;;;;;13.57;11.77;;;;;;;8.47;100.00;100592.44;5058469;28;20440;-74
2022/10/21 02:28:52;;;;;;;12.47;10.97;;;;;;;8.56;100.00;100612.69;5064785;28;20440;-74
2022/10/21 02:31:21;;;;;;;15.47;10.63;;;;;;;10.83;100.00;100964.31;5060992;28;20544;-74
2022/10/21 02:34:03;;;;;;;14.33;10.50;;;;;;;9.73;100.00;100809.47;5058792;28;20523;-74
2022/10/21 02:36:53;;;;;;;13.07;11.83;;;;;;;10.96;100.00;100958.19;5060417;28;20444;-73
2022/10/21 02:39:35;;;;;;;13.00;11.37;;;;;;;10.32;100.00;100880.63;5053714;28;20460;-74
2022/10/21 02:42:06;;;;;;;13.27;11.03;;;;;;;10.99;100.00;100965.84;5048850;28;20944;-74
2022/10/21 02:44:32;;;;;;;18.57;13.17;;;;;;;10.22;100.00;100853.31;5060769;28;20452;-73
2022/10/21 02:46:57;;;;;;;12.03;10.80;;;;;;;11.02;100.00;100972.66;5057619;28;20437;-74
2022/10/21 02:49:23;;;;;;;19.33;11.90;;;;;;;10.94;100.00;100960.25;5062846;28;20449;-74
2022/10/21 02:51:49;;;;;;;13.77;12.30;;;;;;;10.25;100.00;100859.09;5054794;28;20671;-73
2022/10/21 02:54:14;;;;;;;15.60;12.30;;;;;;;10.91;100.00;100965.19;5054477;28;20211;-73
2022/10/21 02:56:39;;;;;;;17.80;12.67;;;;;;;11.00;100.00;100980.94;5057743;28;20246;-74
2022/10/21 02:59:05;;;;;;;15.00;11.83;;;;;;;10.53;100.00;100906.53;5053518;28;20218;-73
2022/10/21 03:01:30;;;;;;;14.70;11.50;;;;;;;10.42;100.00;100899.06;5056047;28;20218;-74
2022/10/21 03:03:56;;;;;;;13.57;12.17;;;;;;;11.14;100.00;100991.72;5054940;28;21095;-73
2022/10/21 03:06:21;;;;;;;14.90;12.43;;;;;;;10.51;100.00;100904.06;5051367;28;20296;-73
2022/10/21 03:08:46;;;;;;;13.53;12.03;;;;;;;11.16;100.00;100979.75;5056508;28;20191;-74
2022/10/21 03:11:12;;;;;;;14.30;12.80;;;;;;;10.68;100.00;100918.00;5060290;28;20261;-74
2022/10/21 03:13:37;;;;;;;14.07;11.60;;;;;;;11.25;100.00;100994.69;5057214;28;20221;-74
2022/10/21 03:16:03;;;;;;;14.50;12.27;;;;;;;10.88;100.00;100926.16;5056877;28;20184;-74
2022/10/21 03:18:28;;;;;;;20.63;12.73;;;;;;;10.29;100.00;100835.44;5056409;28;21223;-74
2022/10/21 03:20:53;;;;;;;14.30;11.30;;;;;;;10.66;100.00;100890.53;5050885;28;20237;-73
2022/10/21 03:23:20;;;;;;;15.53;11.93;;;;;;;10.64;100.00;100897.94;5060264;28;20187;-74
2022/10/21 03:25:45;;;;;;;17.20;12.40;;;;;;;11.36;100.00;100997.81;5055437;28;20675;-74
2022/10/21 03:28:12;;;;;;;15.57;12.30;;;;;;;11.04;100.00;100944.59;5058095;28;20430;-74
2022/10/21 03:30:37;;;;;;;18.70;12.40;;;;;;;11.32;100.00;100989.34;5049607;28;20199;-75
2022/10/21 03:33:03;;;;;;;16.10;12.60;;;;;;;11.42;100.00;100987.09;5050293;28;20478;-74
2022/10/21 03:35:28;;;;;;;15.70;11.57;;;;;;;11.30;100.00;100951.13;5053073;28;20191;-74
2022/10/21 03:37:54;;;;;;;15.43;11.90;;;;;;;11.50;100.00;100980.72;5056508;28;20199;-74
2022/10/21 03:40:19;;;;;;;13.30;11.07;;;;;;;11.14;100.00;100903.97;5043573;28;20278;-74
2022/10/21 03:42:45;;;;;;;10.87;9.77;;;;;;;11.20;100.00;100910.41;5035692;28;20264;-74
2022/10/21 03:45:11;;;;;;;13.60;10.57;;;;;;;11.03;100.00;100883.91;5060726;28;20187;-73
2022/10/21 03:47:36;;;;;;;14.10;11.53;;;;;;;10.61;100.00;100815.19;5059734;28;20931;-74
2022/10/21 03:50:02;;;;;;;14.33;11.50;;;;;;;11.31;100.00;100918.69;5059872;28;20669;-74
2022/10/21 03:52:28;;;;;;;12.57;10.40;;;;;;;11.45;100.00;100919.53;5060475;28;20213;-74
2022/10/21 03:54:53;;;;;;;10.77;9.20;;;;;;;11.32;100.00;100901.56;5064170;28;20433;-74
2022/10/21 03:57:19;;;;;;;11.83;10.60;;;;;;;11.68;100.00;100951.44;5059843;28;20325;-74
2022/10/21 03:59:44;;;;;;;13.47;9.73;;;;;;;10.98;100.00;100834.53;5060250;28;20191;-74
2022/10/21 04:02:09;;;;;;;10.50;9.30;;;;;;;11.46;100.00;100925.78;5056936;28;20223;-74
2022/10/21 04:04:35;;;;;;;11.57;10.37;;;;;;;10.98;100.00;100827.31;5054178;28;20187;-75
2022/10/21 04:07:00;;;;;;;11.83;10.23;;;;;;;11.63;100.00;100931.56;5054411;28;20266;-75
2022/10/21 04:09:27;;;;;;;11.73;9.50;;;;;;;11.19;100.00;100853.16;5052372;28;20662;-74
2022/10/21 04:11:52;;;;;;;11.87;10.63;;;;;;;11.82;100.00;100959.53;5058732;28;21067;-74
2022/10/21 04:14:18;;;;;;;11.03;9.93;;;;;;;11.19;100.00;100860.41;5047729;28;20526;-74
2022/10/21 04:16:44;;;;;;;12.13;9.63;;;;;;;11.84;100.00;100949.41;5051737;28;20294;-74
2022/10/21 04:19:15;;;;;;;11.43;9.53;;;;;;;11.82;100.00;100954.97;5044107;28;20960;-74
2022/10/21 04:21:41;;;;;;;13.57;9.80;;;;;;;11.45;100.00;100914.19;5060795;28;20202;-74
2022/10/21 04:24:06;;;;;;;11.13;9.13;;;;;;;11.21;100.00;100853.81;5054148;28;20488;-74
2022/10/21 04:26:32;;;;;;;9.50;8.60;;;;;;;11.11;100.00;100841.78;5063711;28;20245;-75
2022/10/21 04:28:57;;;;;;;10.20;8.93;;;;;;;11.30;100.00;100860.63;5061089;28;20191;-75
2022/10/21 04:31:22;;;;;;;11.33;9.23;;;;;;;11.33;100.00;100851.34;5057582;28;20214;-75
2022/10/21 04:33:50;;;;;;;12.53;9.37;;;;;;;11.59;100.00;100895.41;5061317;28;20294;-75
2022/10/21 04:36:16;;;;;;;11.73;9.90;;;;;;;11.74;100.00;100944.41;5080345;28;20190;-75
2022/10/21 04:38:41;;;;;;;10.50;9.07;;;;;;;11.29;100.00;100867.06;5079589;28;20451;-74
2022/10/21 04:41:07;;;;;;;13.13;11.00;;;;;;;11.73;100.00;100951.66;5061543;28;20244;-74
2022/10/21 04:43:32;;;;;;;13.70;9.83;;;;;;;11.73;100.00;100943.59;5054686;28;20659;-74
2022/10/21 04:45:57;;;;;;;13.00;10.57;;;;;;;11.04;100.00;100837.22;5039217;28;20563;-75
2022/10/21 04:48:23;;;;;;;11.40;10.03;;;;;;;11.14;100.00;100849.44;5043588;28;20229;-75
2022/10/21 04:50:51;;;;;;;11.83;9.67;;;;;;;11.80;100.00;100945.47;5062771;28;20243;-75
2022/10/21 04:53:16;;;;;;;10.67;9.30;;;;;;;11.28;100.00;100848.44;5061162;28;20645;-75
2022/10/21 04:55:41;;;;;;;11.50;9.13;;;;;;;11.84;100.00;100926.03;5055405;28;20549;-75
2022/10/21 04:58:07;;;;;;;10.50;9.43;;;;;;;11.80;100.00;100914.03;5042653;28;20257;-74
2022/10/21 05:00:33;;;;;;;10.63;9.43;;;;;;;11.20;100.00;100808.38;5048930;28;20195;-74
2022/10/21 05:02:58;;;;;;;11.10;9.80;;;;;;;11.80;100.00;100897.09;5057726;28;20266;-76
2022/10/21 05:05:23;;;;;;;14.20;10.30;;;;;;;11.77;100.00;100896.50;5056990;28;20237;-75
2022/10/21 05:07:49;;;;;;;12.87;9.47;;;;;;;11.63;100.00;100897.50;5060651;28;20210;-76
2022/10/21 05:10:24;;;;;;;10.83;9.47;;;;;;;11.47;100.00;100865.63;5053883;28;20243;-75
2022/10/21 05:12:49;;;;;;;10.87;9.77;;;;;;;11.11;100.00;100810.44;5054219;28;20757;-75
2022/10/21 05:15:15;;;;;;;11.00;9.90;;;;;;;11.32;100.00;100836.28;5049466;28;20529;-75
2022/10/21 05:17:40;;;;;;;12.03;10.73;;;;;;;10.68;100.00;100735.59;5050214;28;20183;-75
2022/10/21 05:20:06;;;;;;;11.30;10.20;;;;;;;10.85;100.00;100752.16;5051256;28;20195;-74
2022/10/21 05:22:32;;;;;;;10.33;9.30;;;;;;;11.62;100.00;100863.59;5052079;28;20312;-75
2022/10/21 05:24:57;;;;;;;10.50;9.40;;;;;;;11.09;100.00;100789.13;5058004;28;21000;-74
2022/10/21 05:27:22;;;;;;;10.67;9.67;;;;;;;11.52;100.00;100844.38;5051744;28;20601;-74
2022/10/21 05:29:48;;;;;;;11.03;9.40;;;;;;;11.61;100.00;100861.94;5060451;28;20202;-74
2022/10/21 05:32:13;;;;;;;13.27;11.07;;;;;;;10.97;100.00;100763.94;5052346;28;20207;-74
2022/10/21 05:34:39;;;;;;;14.13;10.50;;;;;;;11.60;100.00;100868.34;5048487;28;20187;-74
2022/10/21 05:37:04;;;;;;;13.53;11.67;;;;;;;11.81;100.00;100890.69;5059989;28;20184;-74
2022/10/21 05:39:29;;;;;;;11.20;9.93;;;;;;;11.86;100.00;100905.22;5060027;28;20748;-74
2022/10/21 05:41:55;;;;;;;12.03;10.73;;;;;;;11.69;100.00;100871.69;5062991;28;20211;-74
2022/10/21 05:44:20;;;;;;;12.10;10.80;;;;;;;11.87;100.00;100901.47;5062710;28;20719;-74
2022/10/21 05:46:46;;;;;;;15.10;11.20;;;;;;;11.13;100.00;100812.88;5062349;28;20195;-75
2022/10/21 05:49:11;;;;;;;11.13;9.93;;;;;;;11.45;100.00;100830.09;5059035;28;20569;-74
2022/10/21 05:51:37;;;;;;;13.03;11.57;;;;;;;11.54;100.00;100850.34;5062926;28;20211;-74
2022/10/21 05:54:04;;;;;;;11.33;10.13;;;;;;;11.45;100.00;100830.09;5064185;28;20465;-74
2022/10/21 05:56:30;;;;;;;13.80;11.40;;;;;;;11.95;100.00;100898.59;5055815;28;20840;-74
2022/10/21 05:58:55;;;;;;;12.77;10.13;;;;;;;11.84;100.00;100877.66;5061439;28;20796;-74
2022/10/21 06:01:21;;;;;;;10.80;9.70;;;;;;;11.86;100.00;100877.47;5059469;28;20462;-74
2022/10/21 06:03:46;;;;;;;10.47;9.40;;;;;;;11.86;100.00;100890.91;5060958;28;20735;-75
2022/10/21 06:06:11;;;;;;;12.27;9.70;;;;;;;11.44;100.00;100815.84;5062750;28;20678;-74
2022/10/21 06:08:40;;;;;;;14.00;9.87;;;;;;;11.37;100.00;100838.34;5064139;28;20196;-74
2022/10/21 06:11:08;;;;;;;11.27;10.07;;;;;;;11.40;100.00;100856.72;5060701;28;20282;-75
2022/10/21 06:13:34;;;;;;;11.60;10.40;;;;;;;11.05;100.00;100804.00;5064476;28;20756;-75
2022/10/21 06:16:00;;;;;;;14.63;10.83;;;;;;;11.46;100.00;100850.56;5061599;28;20568;-74
2022/10/21 06:18:25;;;;;;;11.80;10.63;;;;;;;11.47;100.00;100873.69;5060555;28;20221;-74
2022/10/21 06:20:51;;;;;;;15.43;10.90;;;;;;;11.43;100.00;100865.22;5058630;28;20619;-74
2022/10/21 06:23:17;;;;;;;12.10;9.80;;;;;;;11.84;100.00;100917.16;5062676;28;20417;-74
2022/10/21 06:25:42;;;;;;;12.27;9.97;;;;;;;11.24;100.00;100831.09;5060922;28;20237;-74
2022/10/21 06:28:08;;;;;;;11.80;10.43;;;;;;;11.71;100.00;100924.16;5059142;28;20457;-74
2022/10/21 06:30:34;;;;;;;13.20;11.27;;;;;;;11.34;100.00;100852.19;5075970;28;20817;-74
2022/10/21 06:32:59;;;;;;;13.17;9.40;;;;;;;11.36;100.00;100847.44;5052811;28;20285;-74
2022/10/21 06:35:25;;;;;;;12.70;10.80;;;;;;;11.81;100.00;100926.47;5055424;28;20187;-74
2022/10/21 06:37:50;;;;;;;10.97;9.87;;;;;;;11.20;100.00;100814.56;5058864;28;20192;-74
2022/10/21 06:40:16;;;;;;;10.80;9.70;;;;;;;11.37;100.00;100858.00;5060433;28;20632;-74
2022/10/21 06:42:41;;;;;;;10.63;9.50;;;;;;;11.48;100.00;100860.03;5054258;28;20202;-74
2022/10/21 06:45:07;;;;;;;11.60;10.40;;;;;;;11.85;100.00;100919.66;5055511;28;20222;-74
2022/10/21 06:47:32;;;;;;;14.53;9.37;;;;;;;11.40;100.00;100856.72;5060798;28;20265;-75
2022/10/21 06:50:01;;;;;;;10.90;9.80;;;;;;;11.91;100.00;100926.91;5058081;28;20652;-77
2022/10/21 06:52:28;;;;;;;10.87;9.77;;;;;;;11.31;100.00;100838.16;5058509;28;20256;-75
2022/10/21 06:54:53;;;;;;;13.20;11.80;;;;;;;11.88;100.00;100932.69;5064763;28;20456;-75
2022/10/21 06:57:19;;;;;;;13.20;10.30;;;;;;;11.42;100.00;100866.25;5060619;28;20863;-76
2022/10/21 06:59:46;;;;;;;11.23;10.03;;;;;;;11.35;100.00;100853.84;5062837;28;20194;-75
2022/10/21 07:02:11;;;;;;;10.90;9.80;;;;;;;11.91;100.00;100929.59;5061841;28;20678;-75
2022/10/21 07:04:36;;;;;;;14.10;11.97;;;;;;;11.95;100.00;100957.72;5061948;28;20424;-75
2022/10/21 07:07:02;;;;;;;11.30;10.10;;;;;;;11.53;100.00;100862.13;5057496;28;20179;-75
2022/10/21 07:09:27;;;;;;;11.77;10.53;;;;;;;11.69;100.00;100887.78;5060450;28;20667;-75
2022/10/21 07:11:53;;;;;;;12.70;11.20;;;;;;;11.92;100.00;100925.06;5057873;28;20198;-75
2022/10/21 07:14:18;;;;;;;11.63;10.23;;;;;;;11.44;100.00;100847.25;5060096;28;21109;-74
2022/10/21 07:16:45;;;;;;;12.80;11.50;;;;;;;11.27;100.00;100833.38;5060129;28;20610;-74
2022/10/21 07:19:10;;;;;;;11.33;10.13;;;;;;;11.96;100.00;100937.06;5056619;28;20281;-74
2022/10/21 07:21:35;;;;;;;11.70;10.50;;;;;;;11.57;100.00;100859.84;5059659;28;20548;-75
2022/10/21 07:24:01;;;;;;;11.60;10.40;;;;;;;11.68;100.00;100865.44;5060096;28;20233;-75
2022/10/21 07:26:29;;;;;;;13.63;11.23;;;;;;;11.90;100.00;100893.00;5058488;28;20275;-75
2022/10/21 07:28:57;;;;;;;10.83;9.73;;;;;;;11.75;100.00;100868.97;5058568;28;20470;-74
2022/10/21 07:31:22;;;;;;;12.30;11.00;;;;;;;12.09;100.00;100904.81;5064734;28;20539;-74
2022/10/21 07:33:48;;;;;;;11.53;9.30;;;;;;;12.37;100.00;100961.03;5060248;28;21048;-74
2022/10/21 07:36:20;;;;;;;11.27;10.07;;;;;;;11.75;100.00;100852.03;5060408;28;20199;-75
2022/10/21 07:38:46;;;;;;;12.27;10.80;;;;;;;12.46;100.00;100947.38;5055367;28;20205;-74
2022/10/21 07:41:17;;;;;;;13.33;10.80;;;;;;;12.50;100.00;100948.63;5059370;28;20468;-75
2022/10/21 07:43:43;;;;;;;13.10;11.70;;;;;;;12.50;100.00;100957.53;5060321;28;20511;-75
2022/10/21 07:46:08;;;;;;;12.10;10.43;;;;;;;11.69;100.00;100842.13;5060681;28;20572;-75
2022/10/21 07:48:34;;;;;;;13.80;11.30;;;;;;;11.85;100.00;100846.25;5055065;28;20187;-75
2022/10/21 07:51:09;;;;;;;17.83;12.77;;;;;;;11.81;100.00;100842.31;5057196;28;20212;-75
2022/10/21 07:53:34;;;;;;;14.93;11.80;;;;;;;12.25;100.00;100881.22;5055167;28;20203;-75
2022/10/21 07:56:09;;;;;;;14.90;10.77;;;;;;;12.76;100.00;100945.91;5059361;28;20453;-75
2022/10/21 07:58:34;;;;;;;19.60;12.10;;;;;;;12.73;100.00;100957.09;5059274;28;20178;-75
2022/10/21 08:01:02;;;;;;;14.60;12.93;;;;;;;11.81;100.00;100815.44;5060539;28;20952;-74
2022/10/21 08:03:28;;;;;;;18.23;12.37;;;;;;;12.72;100.00;100952.72;5058969;28;20185;-74
2022/10/21 08:05:54;;;;;;;13.67;11.60;;;;;;;12.69;100.00;100955.84;5060190;28;20429;-74
2022/10/21 08:08:22;;;;;;;16.00;13.13;;;;;;;11.98;100.00;100849.78;5057836;28;20191;-74
2022/10/21 08:10:49;;;;;;;13.20;11.40;;;;;;;12.72;100.00;100968.88;5055855;28;20536;-74
2022/10/21 08:13:16;;;;;;;15.20;12.07;;;;;;;12.09;100.00;100887.81;5058987;28;20554;-75
2022/10/21 08:15:46;;;;;;;14.60;12.00;;;;;;;12.72;100.00;100979.63;5065897;28;20915;-74
2022/10/21 08:18:12;;;;;;;18.87;12.60;;;;;;;12.62;100.00;100950.47;5060804;28;20433;-74
2022/10/21 08:20:39;;;;;;;12.87;11.30;;;;;;;12.74;100.00;100977.56;5059348;28;20536;-75
2022/10/21 08:23:06;;;;;;;12.87;11.57;;;;;;;12.78;100.00;100962.66;5060628;28;20432;-75
2022/10/21 08:25:31;;;;;;;12.10;10.87;;;;;;;12.80;100.00;100979.44;5058481;28;20442;-74
2022/10/21 08:27:56;;;;;;;14.60;11.83;;;;;;;12.81;100.00;100962.22;5052391;28;20438;-74
2022/10/21 08:30:22;;;;;;;12.57;11.00;;;;;;;12.72;100.00;100936.56;5057445;28;20244;-74
2022/10/21 08:32:47;;;;;;;13.30;11.90;;;;;;;12.88;100.00;100946.09;5061039;28;20207;-74
2022/10/21 08:35:13;;;;;;;11.87;9.73;;;;;;;12.99;100.00;100925.72;5059015;28;20284;-74
2022/10/21 08:37:38;;;;;;;17.13;13.27;;;;;;;12.22;100.00;100796.41;5058599;28;20183;-74
2022/10/21 08:40:04;;;;;;;14.67;12.97;;;;;;;13.18;100.00;100924.00;5058456;28;20272;-74
2022/10/21 08:42:30;;;;;;;12.77;11.47;;;;;;;13.08;100.00;100914.53;5057095;28;20213;-74
2022/10/21 08:44:59;;;;;;;16.07;12.50;;;;;;;13.05;100.00;100889.91;5061565;28;20850;-74
2022/10/21 08:47:44;;;;;;;19.60;11.70;;;;;;;13.72;100.00;100961.28;5054036;28;20283;-74
2022/10/21 08:50:19;;;;;;;17.47;12.30;;;;;;;13.81;100.00;100975.34;5058740;28;20461;-74
2022/10/21 08:52:57;;;;;;;14.47;12.97;;;;;;;13.79;100.00;100963.94;5058885;28;20481;-74
2022/10/21 08:55:28;;;;;;;13.53;12.13;;;;;;;13.13;100.00;100835.78;5056500;28;20521;-74
2022/10/21 08:57:53;;;;;;;14.00;11.97;;;;;;;13.26;100.00;100843.00;5060369;28;20421;-74
2022/10/21 09:00:24;;;;;;;14.73;10.90;;;;;;;13.49;100.00;100877.47;5055374;28;20449;-74
2022/10/21 09:03:19;;;;;;;17.43;13.23;;;;;;;14.10;100.00;100948.78;5058737;28;20206;-74
2022/10/21 09:05:56;;;;;;;14.67;11.90;;;;;;;14.12;100.00;100935.94;5049590;28;20432;-74
2022/10/21 09:08:59;;;;;;;12.83;11.53;;;;;;;14.14;100.00;100936.50;5078912;28;20436;-74
2022/10/21 09:11:46;;;;;;;16.47;12.30;;;;;;;14.12;100.00;100944.00;5058123;28;20991;-75
2022/10/21 09:14:26;;;;;;;16.07;12.50;;;;;;;14.16;100.00;100937.94;5057493;28;20453;-74
2022/10/21 09:16:51;;;;;;;15.47;12.90;;;;;;;13.77;100.00;100874.38;5064405;28;21081;-74
2022/10/21 09:19:51;;;;;;;14.00;11.60;;;;;;;13.49;100.00;100858.59;5063661;28;20428;-74
2022/10/21 09:22:47;;;;;;;14.77;12.13;;;;;;;14.04;100.00;100928.09;5060247;28;20729;-74
2022/10/21 09:25:34;;;;;;;18.43;12.60;;;;;;;14.17;100.00;100923.41;5060798;28;20460;-73
2022/10/21 09:28:08;;;;;;;12.40;11.10;;;;;;;14.19;100.00;100929.41;5059951;28;20447;-75
2022/10/21 09:30:34;;;;;;;14.53;10.40;;;;;;;14.25;100.00;100944.72;5059633;28;20527;-74
2022/10/21 09:33:01;;;;;;;15.03;12.00;;;;;;;13.57;100.00;100818.75;5057613;28;20472;-74
2022/10/21 09:35:42;;;;;;;13.30;11.30;;;;;;;13.58;100.00;100822.25;5055237;28;20195;-74
2022/10/21 09:38:44;;;;;;;13.37;10.90;;;;;;;14.20;100.00;100914.91;5061788;28;20436;-74
2022/10/21 09:41:17;;;;;;;23.07;11.47;;;;;;;14.37;100.00;100944.00;5058953;28;20462;-74
2022/10/21 09:43:43;;;;;;;11.33;10.13;;;;;;;14.33;100.00;100907.72;5061829;28;20441;-74
2022/10/21 09:46:13;;;;;;;15.90;11.60;;;;;;;14.43;100.00;100954.72;5061123;28;20921;-74
2022/10/21 09:48:43;;;;;;;17.87;11.50;;;;;;;14.42;100.00;100950.38;5062618;28;20471;-75
2022/10/21 09:51:15;;;;;;;15.57;11.93;;;;;;;14.49;100.00;100955.72;5055744;28;20468;-74
2022/10/21 09:53:47;;;;;;;20.30;12.63;;;;;;;14.40;100.00;100935.47;5061966;28;20465;-74
2022/10/21 09:56:17;;;;;;;14.13;11.57;;;;;;;14.77;100.00;100951.75;5063297;28;20575;-73
2022/10/21 09:58:45;;;;;;;14.33;11.17;;;;;;;14.74;100.00;100949.50;5052323;28;20532;-75
2022/10/21 10:01:19;;;;;;;16.30;10.83;;;;;;;14.68;100.00;100945.81;5051848;28;20480;-74
2022/10/21 10:03:47;;;;;;;13.50;11.47;;;;;;;14.00;100.00;100846.78;5062902;28;20418;-74
2022/10/21 10:06:29;;;;;;;17.57;12.13;;;;;;;14.18;100.00;100897.28;5062779;28;21025;-76
2022/10/21 10:09:07;;;;;;;16.57;12.97;;;;;;;13.96;100.00;100876.06;5062163;28;20512;-74
2022/10/21 10:11:32;;;;;;;12.30;11.10;;;;;;;14.54;100.00;100938.91;5062127;28;20460;-75
2022/10/21 10:14:21;;;;;;;13.93;10.47;;;;;;;14.64;100.00;100952.72;5057539;28;21102;-74
2022/10/21 10:16:47;;;;;;;12.23;10.13;;;;;;;14.68;100.00;100959.31;5058887;28;20222;-75
2022/10/21 10:19:25;;;;;;;16.80;10.67;;;;;;;14.74;100.00;100965.69;5060665;28;20858;-75
2022/10/21 10:22:27;;;;;;;14.83;11.10;;;;;;;14.66;100.00;100891.22;5053865;28;20736;-74
2022/10/21 10:24:52;;;;;;;18.60;12.00;;;;;;;14.70;100.00;100884.31;5026746;28;20544;-75
2022/10/21 10:27:22;;;;;;;14.93;11.20;;;;;;;15.32;100.00;100957.97;5049852;28;20438;-75
2022/10/21 10:29:57;;;;;;;12.17;10.97;;;;;;;15.07;100.00;100855.41;5067478;28;20187;-74
2022/10/21 10:32:25;;;;;;;12.50;10.37;;;;;;;15.22;100.00;100848.78;5054283;28;20468;-75
2022/10/21 10:34:54;;;;;;;13.90;11.50;;;;;;;15.00;100.00;100867.34;5060128;28;20471;-76
2022/10/21 10:37:30;;;;;;;14.03;11.53;;;;;;;15.74;100.00;100946.44;5054300;28;20528;-76
2022/10/21 10:39:57;;;;;;;14.33;10.93;;;;;;;15.59;100.00;100949.50;5059903;28;20442;-76
2022/10/21 10:42:32;;;;;;;10.30;9.20;;;;;;;15.23;100.00;100848.53;5059207;28;20472;-75
2022/10/21 10:45:02;;;;;;;16.13;10.43;;;;;;;15.92;100.00;100954.47;5061449;28;20457;-75
2022/10/21 10:47:35;;;;;;;13.80;10.30;;;;;;;15.37;100.00;100860.81;5060411;28;20877;-75
2022/10/21 10:50:00;;;;;;;15.93;10.93;;;;;;;15.96;100.00;100947.53;5061906;28;20812;-72
2022/10/21 10:52:25;;;;;;;16.10;10.80;;;;;;;15.49;100.00;100854.63;5063566;28;20441;-74
2022/10/21 10:55:09;;;;;;;15.80;10.63;;;;;;;16.00;100.00;100929.78;5060017;28;20242;-79
2022/10/21 10:57:36;;;;;;;10.93;9.80;;;;;;;15.87;100.00;100911.06;5060326;28;20194;-74
2022/10/21 11:00:16;;;;;;;15.30;10.43;;;;;;;15.98;100.00;100925.66;5062597;28;20449;-74
2022/10/21 11:02:48;;;;;;;12.43;10.03;;;;;;;15.96;100.00;100925.88;5057160;28;20560;-75
2022/10/21 11:05:26;;;;;;;12.00;8.90;;;;;;;15.76;100.00;100925.38;5056639;28;20878;-77
2022/10/21 11:08:13;;;;;;;13.23;9.13;;;;;;;15.80;100.00;100918.47;5058257;28;20803;-75
2022/10/21 11:10:45;;;;;;;16.50;9.83;;;;;;;15.24;100.00;100847.47;5059436;28;20929;-74
2022/10/21 11:13:20;;;;;;;18.10;10.43;;;;;;;15.75;100.00;100918.31;5055161;28;20881;-74